createdAt,value
2017-05-25T00:00:39.987Z,12.83
2017-05-25T00:01:39.707Z,12.83
2017-05-25T00:02:54.348Z,12.85
2017-05-25T00:03:54.370Z,12.82
2017-05-25T00:04:39.775Z,12.82
2017-05-25T00:05:40.171Z,12.79
2017-05-25T00:06:54.740Z,12.79
2017-05-25T00:07:40.147Z,12.71
2017-05-25T00:08:39.872Z,12.71
2017-05-25T00:09:54.503Z,12.65
2017-05-25T00:10:40.215Z,12.67
2017-05-25T00:11:40.239Z,12.71
2017-05-25T00:12:40.263Z,12.75
2017-05-25T00:13:39.979Z,12.71
2017-05-25T00:14:40.004Z,12.7
2017-05-25T00:16:40.048Z,12.68
2017-05-25T00:17:40.381Z,12.68
2017-05-25T00:18:40.400Z,12.65
2017-05-25T00:19:40.421Z,12.64
2017-05-25T00:20:40.139Z,12.65
2017-05-25T00:21:40.165Z,12.54
2017-05-25T00:22:40.489Z,12.67
2017-05-25T00:23:40.516Z,12.52
2017-05-25T00:24:40.533Z,12.59
2017-05-25T00:25:55.173Z,12.6
2017-05-25T00:26:40.580Z,12.46
2017-05-25T00:27:40.608Z,12.52
2017-05-25T00:28:40.323Z,12.42
2017-05-25T00:29:40.652Z,12.45
2017-05-25T00:30:40.672Z,12.46
2017-05-25T00:31:40.693Z,12.45
2017-05-25T00:32:40.787Z,12.46
2017-05-25T00:33:40.742Z,12.47
2017-05-25T00:34:40.764Z,12.39
2017-05-25T00:35:40.782Z,12.42
2017-05-25T00:36:40.568Z,12.37
2017-05-25T00:37:40.836Z,12.45
2017-05-25T00:38:40.853Z,12.46
2017-05-25T00:39:40.876Z,12.45
2017-05-25T00:40:55.520Z,12.35
2017-05-25T00:41:40.925Z,12.35
2017-05-25T00:42:40.948Z,12.41
2017-05-25T00:43:40.970Z,12.37
2017-05-25T00:44:40.991Z,12.35
2017-05-25T00:45:41.016Z,12.41
2017-05-25T00:46:41.034Z,12.32
2017-05-25T00:47:41.062Z,12.41
2017-05-25T00:49:41.105Z,12.42
2017-05-25T00:50:55.744Z,12.42
2017-05-25T00:51:40.844Z,12.37
2017-05-25T00:52:41.179Z,12.35
2017-05-25T00:53:41.199Z,12.37
2017-05-25T00:54:41.215Z,12.29
2017-05-25T00:55:41.239Z,12.27
2017-05-25T00:56:41.265Z,12.24
2017-05-25T00:57:41.285Z,12.23
2017-05-25T00:58:41.309Z,12.27
2017-05-25T00:59:41.330Z,12.32
2017-05-25T01:00:41.352Z,12.21
2017-05-25T01:01:41.374Z,12.27
2017-05-25T01:02:41.401Z,12.19
2017-05-25T01:04:41.457Z,12.23
2017-05-25T01:05:56.084Z,12.19
2017-05-25T01:06:41.489Z,12.17
2017-05-25T01:07:41.513Z,12.14
2017-05-25T01:08:41.532Z,12.19
2017-05-25T01:09:56.171Z,12.16
2017-05-25T01:10:41.580Z,12.19
2017-05-25T01:11:41.600Z,12.16
2017-05-25T01:12:56.241Z,12.12
2017-05-25T01:13:41.648Z,12.16
2017-05-25T01:14:41.671Z,12.1
2017-05-25T01:15:41.696Z,12.13
2017-05-25T01:16:41.719Z,12.16
2017-05-25T01:17:41.738Z,12.07
2017-05-25T01:18:41.762Z,12.04
2017-05-25T01:19:41.782Z,12.01
2017-05-25T01:20:41.802Z,11.96
2017-05-25T01:22:41.544Z,12.02
2017-05-25T01:23:41.871Z,11.91
2017-05-25T01:24:41.896Z,12.02
2017-05-25T01:25:41.616Z,11.95
2017-05-25T01:26:41.633Z,11.98
2017-05-25T01:27:41.960Z,11.85
2017-05-25T01:28:56.599Z,11.88
2017-05-25T01:29:42.004Z,11.9
2017-05-25T01:30:41.726Z,11.98
2017-05-25T01:31:42.051Z,11.91
2017-05-25T01:33:42.098Z,11.78
2017-05-25T01:34:41.815Z,11.98
2017-05-25T01:35:41.835Z,11.98
2017-05-25T01:36:41.858Z,11.88
2017-05-25T01:37:42.192Z,11.96
2017-05-25T01:38:42.210Z,11.94
2017-05-25T01:39:42.232Z,11.9
2017-05-25T01:40:41.646Z,11.88
2017-05-25T01:41:41.969Z,11.8
2017-05-25T01:42:42.300Z,11.95
2017-05-25T01:43:42.324Z,11.83
2017-05-25T01:44:56.653Z,11.79
2017-05-25T01:45:42.363Z,11.78
2017-05-25T01:46:42.082Z,11.9
2017-05-25T01:47:42.107Z,11.78
2017-05-25T01:48:42.432Z,11.95
2017-05-25T01:49:42.452Z,11.88
2017-05-25T01:50:42.476Z,11.79
2017-05-25T01:51:42.200Z,11.88
2017-05-25T01:52:42.220Z,11.8
2017-05-25T01:53:42.240Z,11.82
2017-05-25T01:54:42.625Z,11.85
2017-05-25T01:55:42.658Z,11.96
2017-05-25T01:56:42.610Z,11.8
2017-05-25T01:57:42.634Z,11.8
2017-05-25T01:58:42.657Z,11.78
2017-05-25T01:59:42.678Z,11.78
2017-05-25T02:00:57.314Z,11.79
2017-05-25T02:01:42.719Z,11.79
2017-05-25T02:02:42.745Z,11.73
2017-05-25T02:03:42.462Z,11.73
2017-05-25T02:04:42.787Z,11.69
2017-05-25T02:05:42.811Z,11.78
2017-05-25T02:06:42.834Z,11.72
2017-05-25T02:07:42.861Z,11.72
2017-05-25T02:08:42.878Z,11.67
2017-05-25T02:09:42.904Z,11.69
2017-05-25T02:10:42.921Z,11.69
2017-05-25T02:11:42.640Z,11.72
2017-05-25T02:12:42.664Z,11.67
2017-05-25T02:13:42.993Z,11.58
2017-05-25T02:14:43.022Z,11.69
2017-05-25T02:15:57.649Z,11.76
2017-05-25T02:16:42.755Z,11.72
2017-05-25T02:17:43.082Z,11.75
2017-05-25T02:18:43.103Z,11.72
2017-05-25T02:19:42.818Z,11.72
2017-05-25T02:20:42.839Z,11.7
2017-05-25T02:21:43.168Z,11.73
2017-05-25T02:22:43.189Z,11.69
2017-05-25T02:23:43.216Z,11.75
2017-05-25T02:24:43.287Z,11.72
2017-05-25T02:25:43.263Z,11.7
2017-05-25T02:26:43.278Z,11.7
2017-05-25T02:27:57.918Z,11.73
2017-05-25T02:28:43.323Z,11.62
2017-05-25T02:29:43.348Z,11.61
2017-05-25T02:30:43.366Z,11.6
2017-05-25T02:31:43.391Z,11.65
2017-05-25T02:32:43.412Z,11.6
2017-05-25T02:33:43.433Z,11.6
2017-05-25T02:34:43.456Z,11.67
2017-05-25T02:35:43.477Z,11.62
2017-05-25T02:36:43.502Z,11.65
2017-05-25T02:37:43.526Z,11.67
2017-05-25T02:39:43.566Z,11.51
2017-05-25T02:40:43.590Z,11.52
2017-05-25T02:41:43.609Z,11.57
2017-05-25T02:42:58.251Z,11.52
2017-05-25T02:43:43.658Z,11.52
2017-05-25T02:44:43.679Z,11.54
2017-05-25T02:45:43.701Z,11.54
2017-05-25T02:46:43.720Z,11.46
2017-05-25T02:47:58.360Z,11.42
2017-05-25T02:48:43.771Z,11.46
2017-05-25T02:49:43.789Z,11.46
2017-05-25T02:50:43.812Z,11.58
2017-05-25T02:51:43.833Z,11.43
2017-05-25T02:52:43.856Z,11.47
2017-05-25T02:53:43.877Z,11.6
2017-05-25T02:54:43.898Z,11.43
2017-05-25T02:55:43.618Z,11.47
2017-05-25T02:56:43.945Z,11.44
2017-05-25T02:57:58.583Z,11.43
2017-05-25T02:58:43.993Z,11.42
2017-05-25T02:59:44.009Z,11.46
2017-05-25T03:00:43.729Z,11.36
2017-05-25T03:01:43.752Z,11.46
2017-05-25T03:02:43.778Z,11.43
2017-05-25T03:03:58.718Z,11.42
2017-05-25T03:04:43.821Z,11.47
2017-05-25T03:05:44.143Z,11.47
2017-05-25T03:06:44.166Z,11.4
2017-05-25T03:07:44.515Z,11.39
2017-05-25T03:08:44.210Z,11.47
2017-05-25T03:09:43.928Z,11.42
2017-05-25T03:11:44.274Z,11.42
2017-05-25T03:12:43.994Z,11.47
2017-05-25T03:13:44.320Z,11.4
2017-05-25T03:14:44.343Z,11.44
2017-05-25T03:15:58.980Z,11.47
2017-05-25T03:16:44.387Z,11.44
2017-05-25T03:17:44.409Z,11.52
2017-05-25T03:18:44.433Z,11.57
2017-05-25T03:19:58.770Z,11.55
2017-05-25T03:20:44.478Z,11.55
2017-05-25T03:22:44.517Z,11.57
2017-05-25T03:23:44.541Z,11.65
2017-05-25T03:24:44.561Z,11.65
2017-05-25T03:25:44.588Z,11.64
2017-05-25T03:26:44.611Z,11.61
2017-05-25T03:27:44.633Z,11.64
2017-05-25T03:28:44.655Z,11.67
2017-05-25T03:29:44.371Z,11.62
2017-05-25T03:30:44.696Z,11.67
2017-05-25T03:31:59.335Z,11.76
2017-05-25T03:32:44.742Z,11.7
2017-05-25T03:33:44.763Z,11.69
2017-05-25T03:34:44.792Z,11.7
2017-05-25T03:35:59.422Z,11.78
2017-05-25T03:36:44.830Z,11.72
2017-05-25T03:37:44.552Z,11.73
2017-05-25T03:38:44.875Z,11.78
2017-05-25T03:39:44.895Z,11.83
2017-05-25T03:40:44.921Z,11.79
2017-05-25T03:41:44.941Z,11.85
2017-05-25T03:42:44.962Z,11.88
2017-05-25T03:43:44.985Z,11.99
2017-05-25T03:44:45.009Z,12.04
2017-05-25T03:45:59.647Z,12.04
2017-05-25T03:46:45.056Z,12.1
2017-05-25T03:47:45.078Z,12.05
2017-05-25T03:48:45.103Z,12.16
2017-05-25T03:49:45.124Z,12.07
2017-05-25T03:50:59.770Z,12.17
2017-05-25T03:51:45.168Z,12.13
2017-05-25T03:53:45.212Z,12.12
2017-05-25T03:54:45.234Z,12.09
2017-05-25T03:55:45.260Z,12.17
2017-05-25T03:56:44.975Z,12.17
2017-05-25T03:58:45.323Z,12.16
2017-05-25T03:59:45.343Z,12.14
2017-05-25T04:00:45.070Z,12.21
2017-05-25T04:01:45.088Z,12.23
2017-05-25T04:03:00.030Z,12.34
2017-05-25T04:04:00.052Z,12.41
2017-05-25T04:04:45.462Z,12.35
2017-05-25T04:05:45.485Z,12.38
2017-05-25T04:06:45.201Z,12.24
2017-05-25T04:07:45.226Z,12.21
2017-05-25T04:08:45.246Z,12.27
2017-05-25T04:09:45.571Z,12.39
2017-05-25T04:10:45.595Z,12.49
2017-05-25T04:12:45.644Z,12.86
2017-05-25T04:13:45.668Z,12.95
2017-05-25T04:15:45.710Z,13.11
2017-05-25T04:16:45.429Z,13.05
2017-05-25T04:17:45.758Z,13.04
2017-05-25T04:18:45.780Z,12.95
2017-05-25T04:19:45.801Z,12.92
2017-05-25T04:20:45.822Z,12.93
2017-05-25T04:21:45.845Z,12.89
2017-05-25T04:23:00.486Z,13.03
2017-05-25T04:23:45.893Z,13.1
2017-05-25T04:24:45.917Z,13.29
2017-05-25T04:25:45.938Z,13.33
2017-05-25T04:26:45.961Z,13.38
2017-05-25T04:27:45.988Z,13.45
2017-05-25T04:28:46.013Z,13.48
2017-05-25T04:29:46.030Z,13.48
2017-05-25T04:30:46.069Z,13.2
2017-05-25T04:31:46.078Z,13.38
2017-05-25T04:32:46.103Z,13.39
2017-05-25T04:33:46.126Z,13.32
2017-05-25T04:35:00.763Z,13.59
2017-05-25T04:35:46.174Z,14.07
2017-05-25T04:37:00.808Z,14.7
2017-05-25T04:37:46.221Z,15.25
2017-05-25T04:39:00.857Z,15.51
2017-05-25T04:39:45.964Z,16.08
2017-05-25T04:40:46.289Z,16.81
2017-05-25T04:41:46.317Z,16.93
2017-05-25T04:42:46.341Z,17.55
2017-05-25T04:43:46.365Z,18.37
2017-05-25T04:45:46.416Z,19.13
2017-05-25T04:46:46.445Z,19.37
2017-05-25T04:47:46.471Z,19.78
2017-05-25T04:48:46.494Z,20.01
2017-05-25T04:49:46.521Z,20.2
2017-05-25T04:51:01.164Z,20.1
2017-05-25T04:51:46.277Z,20.05
2017-05-25T04:52:46.300Z,19.78
2017-05-25T04:53:46.632Z,20.11
2017-05-25T04:55:01.326Z,20.97
2017-05-25T04:55:46.684Z,20.7
2017-05-25T04:56:46.714Z,20.88
2017-05-25T04:57:46.744Z,21.35
2017-05-25T04:58:46.464Z,21.35
2017-05-25T04:59:46.806Z,21.56
2017-05-25T05:00:46.833Z,22.17
2017-05-25T05:01:46.861Z,21.29
2017-05-25T05:02:46.888Z,20.7
2017-05-25T05:03:46.918Z,20.18
2017-05-25T05:04:46.644Z,20.92
2017-05-25T05:05:46.975Z,21.4
2017-05-25T05:06:47.006Z,22
2017-05-25T05:07:47.038Z,22.24
2017-05-25T05:08:47.070Z,22.67
2017-05-25T05:09:47.098Z,23.1
2017-05-25T05:11:01.746Z,23.69
2017-05-25T05:11:47.164Z,23.68
2017-05-25T05:12:46.889Z,23.94
2017-05-25T05:13:47.222Z,24.25
2017-05-25T05:14:47.257Z,24.39
2017-05-25T05:15:47.287Z,23.68
2017-05-25T05:16:47.316Z,24
2017-05-25T05:17:47.349Z,24.1
2017-05-25T05:18:47.384Z,24.6
2017-05-25T05:20:47.449Z,25.52
2017-05-25T05:21:47.181Z,26.02
2017-05-25T05:22:47.513Z,26.5
2017-05-25T05:23:47.549Z,25.91
2017-05-25T05:24:47.582Z,25.65
2017-05-25T05:26:02.233Z,26.45
2017-05-25T05:26:47.648Z,26.8
2017-05-25T05:27:47.683Z,26.69
2017-05-25T05:28:47.729Z,26.2
2017-05-25T05:29:47.756Z,26.62
2017-05-25T05:30:47.784Z,27
2017-05-25T05:31:47.818Z,27.19
2017-05-25T05:32:47.853Z,27.29
2017-05-25T05:34:47.919Z,27.72
2017-05-25T05:35:47.651Z,28
2017-05-25T05:36:47.988Z,28.24
2017-05-25T05:37:48.022Z,28.4
2017-05-25T05:38:48.059Z,28.7
2017-05-25T05:39:48.096Z,28.58
2017-05-25T05:40:48.128Z,27.82
2017-05-25T05:41:48.167Z,26.94
2017-05-25T05:42:48.200Z,26.72
2017-05-25T05:43:47.930Z,26.89
2017-05-25T05:45:48.302Z,28.15
2017-05-25T05:46:48.033Z,28.34
2017-05-25T05:47:48.073Z,28.59
2017-05-25T05:48:48.414Z,28.25
2017-05-25T05:49:48.443Z,28.14
2017-05-25T05:51:48.515Z,28.14
2017-05-25T05:52:48.550Z,28.52
2017-05-25T05:53:48.593Z,29.31
2017-05-25T05:54:48.623Z,29.7
2017-05-25T05:55:48.658Z,30.1
2017-05-25T05:56:48.702Z,29.97
2017-05-25T05:58:03.351Z,28.98
2017-05-25T05:58:48.769Z,29.3
2017-05-25T05:59:48.808Z,27.88
2017-05-25T06:00:48.838Z,26.44
2017-05-25T06:01:48.878Z,26.54
2017-05-25T06:02:48.911Z,27.36
2017-05-25T06:03:48.953Z,28.24
2017-05-25T06:04:48.985Z,28.43
2017-05-25T06:06:49.058Z,28.67
2017-05-25T06:07:48.791Z,29.3
2017-05-25T06:09:03.751Z,29.61
2017-05-25T06:09:49.168Z,29.98
2017-05-25T06:10:49.204Z,30.08
2017-05-25T06:11:49.241Z,30
2017-05-25T06:12:49.278Z,28
2017-05-25T06:14:03.629Z,28.12
2017-05-25T06:14:49.352Z,28.54
2017-05-25T06:15:49.385Z,29.31
2017-05-25T06:16:49.423Z,28.96
2017-05-25T06:17:49.459Z,29.52
2017-05-25T06:19:49.542Z,30.26
2017-05-25T06:20:49.568Z,30.31
2017-05-25T06:21:49.303Z,29.76
2017-05-25T06:22:49.645Z,29.97
2017-05-25T06:23:49.685Z,30.08
2017-05-25T06:24:49.724Z,30.31
2017-05-25T06:25:49.758Z,30.54
2017-05-25T06:26:49.791Z,29.85
2017-05-25T06:27:49.830Z,29.39
2017-05-25T06:28:49.868Z,27.72
2017-05-25T06:30:04.523Z,28.27
2017-05-25T06:30:49.941Z,28.31
2017-05-25T06:31:49.975Z,28.29
2017-05-25T06:33:49.752Z,29.04
2017-05-25T06:34:49.784Z,29.36
2017-05-25T06:36:49.860Z,28.44
2017-05-25T06:37:49.894Z,28.73
2017-05-25T06:39:04.860Z,28.88
2017-05-25T06:39:50.275Z,29.27
2017-05-25T06:41:04.628Z,29.6
2017-05-25T06:41:50.348Z,30
2017-05-25T06:42:50.082Z,30.17
2017-05-25T06:43:50.424Z,30.55
2017-05-25T06:44:50.463Z,30.07
2017-05-25T06:46:05.116Z,30.39
2017-05-25T06:46:50.231Z,30.31
2017-05-25T06:48:50.609Z,30
2017-05-25T06:49:50.646Z,29.83
2017-05-25T06:50:50.695Z,29.79
2017-05-25T06:51:50.721Z,29.76
2017-05-25T06:52:50.758Z,29.05
2017-05-25T06:55:50.868Z,29.05
2017-05-25T06:57:05.527Z,29.52
2017-05-25T06:57:50.949Z,29.28
2017-05-25T06:58:50.985Z,29.57
2017-05-25T06:59:51.019Z,28.74
2017-05-25T07:01:05.677Z,29.14
2017-05-25T07:01:51.107Z,29.08
2017-05-25T07:02:51.134Z,29.52
2017-05-25T07:03:51.172Z,29.64
2017-05-25T07:04:51.209Z,29.83
2017-05-25T07:05:51.246Z,29.63
2017-05-25T07:07:51.014Z,30.34
2017-05-25T07:09:51.393Z,29.48
2017-05-25T07:10:51.433Z,29.67
2017-05-25T07:12:06.089Z,30.08
2017-05-25T07:12:51.507Z,30.11
2017-05-25T07:13:51.550Z,29.74
2017-05-25T07:14:51.581Z,29.76
2017-05-25T07:15:51.618Z,30.1
2017-05-25T07:16:51.354Z,30.47
2017-05-25T07:17:51.696Z,30.17
2017-05-25T07:18:51.126Z,29.28
2017-05-25T07:19:51.768Z,28.02
2017-05-25T07:20:51.805Z,28.04
2017-05-25T07:21:51.850Z,28.12
2017-05-25T07:23:51.918Z,28.3
2017-05-25T07:24:51.652Z,27.59
2017-05-25T07:25:51.993Z,27.77
2017-05-25T07:26:52.030Z,28.55
2017-05-25T07:27:52.068Z,28.68
2017-05-25T07:28:52.105Z,28.81
2017-05-25T07:29:52.143Z,28.25
2017-05-25T07:30:51.877Z,27.17
2017-05-25T07:31:52.216Z,26.92
2017-05-25T07:33:06.873Z,28.14
2017-05-25T07:33:52.292Z,28.71
2017-05-25T07:34:52.328Z,29.04
2017-05-25T07:35:52.368Z,29.15
2017-05-25T07:36:52.403Z,28.98
2017-05-25T07:37:52.146Z,29.76
2017-05-25T07:38:52.480Z,30.27
2017-05-25T07:39:52.512Z,29.45
2017-05-25T07:41:52.282Z,29
2017-05-25T07:42:52.622Z,29.26
2017-05-25T07:44:07.280Z,28.59
2017-05-25T07:44:52.741Z,28.49
2017-05-25T07:45:52.734Z,28
2017-05-25T07:46:52.769Z,28.33
2017-05-25T07:47:52.812Z,28.49
2017-05-25T07:49:07.463Z,28.4
2017-05-25T07:49:52.894Z,28.29
2017-05-25T07:50:52.919Z,26.84
2017-05-25T07:51:52.954Z,27.21
2017-05-25T07:52:52.990Z,27.63
2017-05-25T07:54:52.760Z,28.41
2017-05-25T07:55:53.107Z,28.83
2017-05-25T07:56:53.136Z,28.73
2017-05-25T07:57:52.873Z,29.08
2017-05-25T07:59:52.941Z,28.85
2017-05-25T08:00:53.283Z,28.8
2017-05-25T08:01:53.316Z,28.9
2017-05-25T08:02:53.353Z,29.48
2017-05-25T08:03:53.097Z,29.48
2017-05-25T08:05:08.049Z,29.57
2017-05-25T08:05:53.465Z,29.68
2017-05-25T08:06:53.498Z,29.42
2017-05-25T08:07:53.537Z,29.26
2017-05-25T08:08:53.571Z,29.21
2017-05-25T08:09:53.609Z,29.61
2017-05-25T08:10:53.645Z,30.08
2017-05-25T08:11:53.681Z,30.53
2017-05-25T08:12:53.719Z,29.33
2017-05-25T08:13:53.761Z,28.43
2017-05-25T08:14:53.791Z,27.78
2017-05-25T08:15:53.826Z,27.29
2017-05-25T08:16:53.862Z,27.13
2017-05-25T08:17:53.961Z,26.94
2017-05-25T08:18:53.942Z,27.22
2017-05-25T08:19:53.969Z,26.66
2017-05-25T08:21:08.626Z,25.91
2017-05-25T08:21:54.044Z,25.57
2017-05-25T08:22:54.078Z,25.57
2017-05-25T08:23:54.111Z,25.95
2017-05-25T08:24:54.148Z,26.62
2017-05-25T08:25:54.185Z,26.58
2017-05-25T08:26:54.230Z,26.72
2017-05-25T08:27:54.252Z,26.67
2017-05-25T08:29:54.325Z,26.44
2017-05-25T08:30:54.356Z,25.73
2017-05-25T08:31:54.392Z,25.62
2017-05-25T08:32:54.430Z,25.92
2017-05-25T08:33:54.464Z,26.23
2017-05-25T08:34:54.506Z,26.02
2017-05-25T08:36:08.849Z,25.67
2017-05-25T08:36:54.566Z,25.46
2017-05-25T08:37:54.297Z,25.27
2017-05-25T08:38:54.635Z,25.57
2017-05-25T08:39:54.671Z,25.51
2017-05-25T08:40:54.703Z,26.02
2017-05-25T08:41:54.738Z,26.15
2017-05-25T08:42:54.774Z,26.33
2017-05-25T08:43:54.500Z,26.39
2017-05-25T08:44:54.849Z,26.02
2017-05-25T08:45:54.873Z,26.51
2017-05-25T08:46:54.906Z,25.25
2017-05-25T08:47:54.944Z,25.75
2017-05-25T08:48:54.671Z,25.72
2017-05-25T08:49:55.015Z,25.9
2017-05-25T08:50:55.041Z,26.32
2017-05-25T08:51:55.081Z,24.45
2017-05-25T08:52:55.109Z,23.28
2017-05-25T08:53:55.145Z,24.1
2017-05-25T08:54:55.179Z,24.43
2017-05-25T08:55:55.208Z,24.43
2017-05-25T08:56:55.244Z,24.2
2017-05-25T08:57:55.281Z,23.78
2017-05-25T08:59:55.344Z,23.13
2017-05-25T09:00:55.077Z,22.91
2017-05-25T09:01:55.411Z,22.14
2017-05-25T09:02:55.143Z,21.71
2017-05-25T09:04:10.094Z,21.38
2017-05-25T09:04:55.516Z,21.49
2017-05-25T09:05:55.551Z,21.68
2017-05-25T09:06:55.572Z,22
2017-05-25T09:08:10.225Z,22.1
2017-05-25T09:08:55.333Z,22.22
2017-05-25T09:09:55.666Z,22.52
2017-05-25T09:10:55.392Z,22.54
2017-05-25T09:11:55.727Z,22.39
2017-05-25T09:12:55.760Z,22.76
2017-05-25T09:13:55.793Z,23
2017-05-25T09:15:55.854Z,22.85
2017-05-25T09:16:55.587Z,22.97
2017-05-25T09:17:55.914Z,22.58
2017-05-25T09:18:55.945Z,23.17
2017-05-25T09:20:10.593Z,23.01
2017-05-25T09:20:56.004Z,23.46
2017-05-25T09:21:56.036Z,23.63
2017-05-25T09:22:56.070Z,23.22
2017-05-25T09:24:10.715Z,22.98
2017-05-25T09:24:55.827Z,22.6
2017-05-25T09:25:56.157Z,22.73
2017-05-25T09:26:56.187Z,22.79
2017-05-25T09:27:56.224Z,23.1
2017-05-25T09:29:56.285Z,22.7
2017-05-25T09:30:56.308Z,22.45
2017-05-25T09:31:56.343Z,22.42
2017-05-25T09:32:56.373Z,22.25
2017-05-25T09:33:56.400Z,22.77
2017-05-25T09:34:56.436Z,23.01
2017-05-25T09:35:56.460Z,22.82
2017-05-25T09:36:56.491Z,22.62
2017-05-25T09:37:56.523Z,23.27
2017-05-25T09:38:56.552Z,23.7
2017-05-25T09:40:11.197Z,23.9
2017-05-25T09:41:56.642Z,23.78
2017-05-25T09:42:56.973Z,23.91
2017-05-25T09:43:56.703Z,23.76
2017-05-25T09:44:56.732Z,23.42
2017-05-25T09:45:56.763Z,22.33
2017-05-25T09:47:11.414Z,22.24
2017-05-25T09:47:56.822Z,22.27
2017-05-25T09:48:56.851Z,22.22
2017-05-25T09:49:56.882Z,22.22
2017-05-25T09:51:56.937Z,22.76
2017-05-25T09:52:56.670Z,22.86
2017-05-25T09:53:57.001Z,22.61
2017-05-25T09:54:56.727Z,22.73
2017-05-25T09:56:11.677Z,22.82
2017-05-25T09:56:57.087Z,22.8
2017-05-25T09:57:57.116Z,22.73
2017-05-25T09:58:57.149Z,22.79
2017-05-25T09:59:57.176Z,23.02
2017-05-25T10:00:57.207Z,23.53
2017-05-25T10:01:57.233Z,23.69
2017-05-25T10:02:57.282Z,23.65
2017-05-25T10:03:56.989Z,23.8
2017-05-25T10:04:57.326Z,23.57
2017-05-25T10:05:57.357Z,23.57
2017-05-25T10:08:12.032Z,22.37
2017-05-25T10:08:57.444Z,22.24
2017-05-25T10:09:57.478Z,22.12
2017-05-25T10:11:12.126Z,22.25
2017-05-25T10:11:57.533Z,22.52
2017-05-25T10:12:57.565Z,22.1
2017-05-25T10:13:57.595Z,22.3
2017-05-25T10:14:57.621Z,22
2017-05-25T10:15:57.650Z,22.14
2017-05-25T10:16:57.679Z,22.43
2017-05-25T10:17:57.714Z,22.54
2017-05-25T10:18:57.746Z,22.39
2017-05-25T10:19:57.465Z,22.25
2017-05-25T10:21:12.113Z,22.35
2017-05-25T10:21:57.828Z,22.28
2017-05-25T10:23:12.475Z,22.33
2017-05-25T10:23:57.897Z,22.36
2017-05-25T10:24:57.921Z,22.21
2017-05-25T10:25:57.639Z,22.17
2017-05-25T10:26:57.985Z,21.82
2017-05-25T10:28:12.631Z,22.21
2017-05-25T10:28:57.798Z,22.42
2017-05-25T10:29:58.072Z,22.24
2017-05-25T10:30:57.793Z,22.4
2017-05-25T10:31:58.129Z,22.54
2017-05-25T10:33:57.875Z,22.91
2017-05-25T10:35:58.248Z,23.12
2017-05-25T10:36:58.263Z,23.68
2017-05-25T10:37:58.295Z,23.9
2017-05-25T10:38:58.327Z,24.18
2017-05-25T10:39:58.052Z,24.02
2017-05-25T10:40:58.386Z,23.9
2017-05-25T10:41:58.410Z,23.55
2017-05-25T10:43:13.059Z,23.25
2017-05-25T10:43:57.863Z,23.25
2017-05-25T10:44:58.502Z,23.13
2017-05-25T10:45:58.528Z,23.01
2017-05-25T10:47:58.590Z,22.67
2017-05-25T10:48:58.619Z,22.67
2017-05-25T10:51:58.707Z,22.22
2017-05-25T10:52:58.434Z,22.1
2017-05-25T10:53:58.766Z,21.71
2017-05-25T10:54:58.801Z,21.65
2017-05-25T10:55:58.822Z,21.43
2017-05-25T10:56:58.852Z,21.4
2017-05-25T10:57:58.884Z,21.74
2017-05-25T10:59:13.527Z,21.98
2017-05-25T10:59:58.939Z,22.03
2017-05-25T11:00:58.968Z,21.91
2017-05-25T11:01:58.996Z,21.8
2017-05-25T11:02:59.027Z,21.46
2017-05-25T11:03:58.750Z,21.49
2017-05-25T11:04:59.083Z,21.46
2017-05-25T11:05:59.110Z,21.59
2017-05-25T11:07:59.169Z,21.75
2017-05-25T11:08:59.199Z,21.64
2017-05-25T11:09:59.228Z,21.62
2017-05-25T11:11:13.872Z,21.8
2017-05-25T11:11:59.283Z,22.12
2017-05-25T11:12:59.312Z,22.06
2017-05-25T11:13:59.036Z,22.28
2017-05-25T11:15:13.996Z,22.33
2017-05-25T11:15:59.395Z,22
2017-05-25T11:16:59.428Z,21.8
2017-05-25T11:17:59.457Z,21.69
2017-05-25T11:18:59.483Z,21.86
2017-05-25T11:19:59.512Z,21.84
2017-05-25T11:21:59.266Z,21.46
2017-05-25T11:22:59.596Z,21.58
2017-05-25T11:23:59.624Z,21.27
2017-05-25T11:24:59.652Z,21.32
2017-05-25T11:26:59.709Z,21.56
2017-05-25T11:27:59.742Z,21.46
2017-05-25T11:28:59.764Z,21.42
2017-05-25T11:29:59.553Z,21.82
2017-05-25T11:31:14.440Z,21.88
2017-05-25T11:31:59.551Z,21.77
2017-05-25T11:32:59.897Z,21.54
2017-05-25T11:34:59.938Z,21.34
2017-05-25T11:36:59.989Z,20.97
2017-05-25T11:38:00.022Z,20.79
2017-05-25T11:38:59.746Z,20.58
2017-05-25T11:41:00.103Z,20.43
2017-05-25T11:42:00.129Z,20.54
2017-05-25T11:43:00.163Z,20.47
2017-05-25T11:43:59.885Z,20.74
2017-05-25T11:44:59.974Z,20.67
2017-05-25T11:46:14.867Z,20.5
2017-05-25T11:46:59.967Z,20.59
2017-05-25T11:48:00.300Z,20.92
2017-05-25T11:49:00.325Z,20.98
2017-05-25T11:51:00.381Z,20.95
2017-05-25T11:52:00.409Z,21.06
2017-05-25T11:53:15.061Z,21.09
2017-05-25T11:54:00.468Z,21.12
2017-05-25T11:55:00.493Z,20.82
2017-05-25T11:56:00.521Z,20.62
2017-05-25T11:57:15.166Z,20.29
2017-05-25T11:58:00.577Z,20.36
2017-05-25T11:59:15.221Z,20.38
2017-05-25T12:00:00.330Z,20.36
2017-05-25T12:01:00.661Z,20.39
2017-05-25T12:02:00.686Z,20.41
2017-05-25T12:03:00.716Z,20.64
2017-05-25T12:04:00.437Z,20.24
2017-05-25T12:05:00.773Z,20.24
2017-05-25T12:06:00.796Z,20.36
2017-05-25T12:07:00.821Z,20.43
2017-05-25T12:08:00.851Z,20.43
2017-05-25T12:09:00.885Z,20.59
2017-05-25T12:10:00.908Z,20.59
2017-05-25T12:12:00.963Z,20.73
2017-05-25T12:13:15.607Z,20.95
2017-05-25T12:14:01.017Z,20.92
2017-05-25T12:15:01.045Z,21.21
2017-05-25T12:16:01.075Z,21.21
2017-05-25T12:17:01.101Z,21.32
2017-05-25T12:18:15.743Z,20.62
2017-05-25T12:19:01.157Z,20.72
2017-05-25T12:20:01.181Z,20.38
2017-05-25T12:21:01.206Z,20.38
2017-05-25T12:22:01.232Z,20.24
2017-05-25T12:23:00.962Z,20.39
2017-05-25T12:24:01.288Z,20.59
2017-05-25T12:25:01.316Z,20.64
2017-05-25T12:26:01.347Z,20.55
2017-05-25T12:27:01.379Z,20.58
2017-05-25T12:28:01.094Z,20.8
2017-05-25T12:29:01.120Z,20.5
2017-05-25T12:30:01.155Z,20.67
2017-05-25T12:31:16.097Z,20.62
2017-05-25T12:32:16.122Z,20.62
2017-05-25T12:33:01.535Z,20.17
2017-05-25T12:34:16.179Z,20.28
2017-05-25T12:35:01.600Z,20.51
2017-05-25T12:36:01.617Z,20.47
2017-05-25T12:37:01.644Z,20.29
2017-05-25T12:38:01.673Z,20.5
2017-05-25T12:39:01.696Z,20.51
2017-05-25T12:40:01.725Z,20.55
2017-05-25T12:42:01.781Z,20.77
2017-05-25T12:43:01.809Z,21.01
2017-05-25T12:44:01.836Z,21.12
2017-05-25T12:45:16.479Z,20.62
2017-05-25T12:46:01.892Z,20.26
2017-05-25T12:47:01.916Z,20.42
2017-05-25T12:48:01.948Z,20.73
2017-05-25T12:49:01.974Z,20.92
2017-05-25T12:50:16.615Z,21.24
2017-05-25T12:51:02.026Z,21.31
2017-05-25T12:52:02.052Z,20.82
2017-05-25T12:53:01.788Z,20.2
2017-05-25T12:54:02.108Z,20.31
2017-05-25T12:55:02.135Z,20.17
2017-05-25T12:56:02.162Z,20.14
2017-05-25T12:57:02.194Z,20.24
2017-05-25T12:58:02.225Z,20.31
2017-05-25T12:59:16.559Z,20.42
2017-05-25T13:00:02.269Z,20.61
2017-05-25T13:01:02.299Z,20.67
2017-05-25T13:02:16.943Z,20.18
2017-05-25T13:03:02.350Z,20.21
2017-05-25T13:04:02.377Z,20.47
2017-05-25T13:05:02.410Z,20.52
2017-05-25T13:06:17.053Z,20.73
2017-05-25T13:07:02.464Z,20.64
2017-05-25T13:08:02.488Z,20.58
2017-05-25T13:09:02.513Z,20.59
2017-05-25T13:10:02.591Z,20.57
2017-05-25T13:11:02.265Z,20.21
2017-05-25T13:12:02.290Z,19.94
2017-05-25T13:13:02.322Z,19.91
2017-05-25T13:14:02.347Z,20.02
2017-05-25T13:15:02.677Z,20.14
2017-05-25T13:16:02.400Z,20.16
2017-05-25T13:17:02.425Z,20.17
2017-05-25T13:18:02.455Z,20.2
2017-05-25T13:19:02.500Z,19.74
2017-05-25T13:20:02.832Z,19.47
2017-05-25T13:21:17.156Z,19.36
2017-05-25T13:22:02.867Z,19.46
2017-05-25T13:23:02.892Z,19.61
2017-05-25T13:24:02.921Z,19.58
2017-05-25T13:25:02.644Z,19.68
2017-05-25T13:26:02.972Z,19.66
2017-05-25T13:27:03.001Z,19.36
2017-05-25T13:28:03.030Z,19.36
2017-05-25T13:29:03.057Z,19.19
2017-05-25T13:30:03.081Z,19.18
2017-05-25T13:31:03.108Z,19.22
2017-05-25T13:32:17.448Z,19.39
2017-05-25T13:33:03.163Z,19.4
2017-05-25T13:34:02.885Z,19.31
2017-05-25T13:35:03.215Z,19.26
2017-05-25T13:36:03.244Z,19.41
2017-05-25T13:37:03.267Z,19.47
2017-05-25T13:38:03.293Z,19.59
2017-05-25T13:39:03.322Z,19.77
2017-05-25T13:40:03.346Z,19.74
2017-05-25T13:41:03.372Z,19.96
2017-05-25T13:42:03.398Z,19.96
2017-05-25T13:43:03.429Z,20.08
2017-05-25T13:44:03.453Z,20.26
2017-05-25T13:45:03.483Z,20.36
2017-05-25T13:46:03.507Z,20.29
2017-05-25T13:47:03.228Z,20.58
2017-05-25T13:48:03.562Z,20.42